createdAt,value
2023-05-06T00:00:28.502Z,99.90
2023-05-06T00:02:56.866Z,99.90
2023-05-06T00:05:25.071Z,99.90
2023-05-06T00:07:53.250Z,99.90
2023-05-06T00:10:23.054Z,99.90
2023-05-06T00:12:51.254Z,99.90
2023-05-06T00:15:19.441Z,99.90
2023-05-06T00:17:47.788Z,99.90
2023-05-06T00:20:16.365Z,99.90
2023-05-06T00:22:44.990Z,99.90
2023-05-06T00:25:13.265Z,99.90
2023-05-06T00:27:42.646Z,99.90
2023-05-06T00:30:13.009Z,99.90
2023-05-06T00:32:41.109Z,99.90
2023-05-06T00:35:10.555Z,99.90
2023-05-06T00:37:38.929Z,99.90
2023-05-06T00:40:09.694Z,99.90
2023-05-06T00:42:38.358Z,99.90
2023-05-06T00:45:09.193Z,99.90
2023-05-06T00:47:37.434Z,99.90
2023-05-06T00:50:08.247Z,99.90
2023-05-06T00:52:36.974Z,99.90
2023-05-06T00:55:05.501Z,99.90
2023-05-06T00:57:37.015Z,99.90
2023-05-06T01:00:07.911Z,99.90
2023-05-06T01:02:46.501Z,99.90
2023-05-06T01:05:16.262Z,99.90
2023-05-06T01:07:51.600Z,99.90
2023-05-06T01:10:26.591Z,99.90
2023-05-06T01:13:03.584Z,99.90
2023-05-06T01:15:37.059Z,99.90
2023-05-06T01:18:11.498Z,99.90
2023-05-06T01:20:42.371Z,99.90
2023-05-06T01:23:13.812Z,99.90
2023-05-06T01:25:42.051Z,99.90
2023-05-06T01:28:14.313Z,99.90
2023-05-06T01:30:49.424Z,99.90
2023-05-06T01:33:26.019Z,99.90
2023-05-06T01:36:03.625Z,99.90
2023-05-06T01:38:39.362Z,99.90
2023-05-06T01:41:09.378Z,99.90
2023-05-06T01:43:42.902Z,99.90
2023-05-06T01:46:16.339Z,99.90
2023-05-06T01:48:46.285Z,99.90
2023-05-06T01:51:16.991Z,99.90
2023-05-06T01:53:46.558Z,99.90
2023-05-06T01:56:15.147Z,99.90
2023-05-06T01:58:43.515Z,99.90
2023-05-06T02:01:11.819Z,99.90
2023-05-06T02:03:40.121Z,99.90
2023-05-06T02:06:08.701Z,99.90
2023-05-06T02:08:37.149Z,99.90
2023-05-06T02:11:06.776Z,99.90
2023-05-06T02:13:34.886Z,99.90
2023-05-06T02:16:03.211Z,99.90
2023-05-06T02:18:32.596Z,99.90
2023-05-06T02:21:01.400Z,99.90
2023-05-06T02:23:30.082Z,99.90
2023-05-06T02:25:59.333Z,99.90
2023-05-06T02:28:30.156Z,99.90
2023-05-06T02:30:58.884Z,99.90
2023-05-06T02:33:27.198Z,99.90
2023-05-06T02:35:56.118Z,99.90
2023-05-06T02:38:25.024Z,99.90
2023-05-06T02:40:53.106Z,99.90
2023-05-06T02:43:23.383Z,99.90
2023-05-06T02:45:53.870Z,99.90
2023-05-06T02:48:22.899Z,99.90
2023-05-06T02:50:52.522Z,99.90
2023-05-06T02:53:20.808Z,99.90
2023-05-06T02:55:49.465Z,99.90
2023-05-06T02:58:18.096Z,99.90
2023-05-06T03:00:46.966Z,99.90
2023-05-06T03:03:16.588Z,99.90
2023-05-06T03:05:44.941Z,99.90
2023-05-06T03:08:13.337Z,99.90
2023-05-06T03:10:41.543Z,99.90
2023-05-06T03:13:10.592Z,99.90
2023-05-06T03:15:39.054Z,99.90
2023-05-06T03:18:07.395Z,99.90
2023-05-06T03:20:37.475Z,99.90
2023-05-06T03:23:05.532Z,99.90
2023-05-06T03:25:33.963Z,99.90
2023-05-06T03:28:02.342Z,99.90
2023-05-06T03:30:30.480Z,99.90
2023-05-06T03:32:59.417Z,99.90
2023-05-06T03:35:27.852Z,99.90
2023-05-06T03:37:57.960Z,99.90
2023-05-06T03:40:28.196Z,99.90
2023-05-06T03:42:56.630Z,99.90
2023-05-06T03:45:25.228Z,99.90
2023-05-06T03:47:53.490Z,99.90
2023-05-06T03:50:21.702Z,99.90
2023-05-06T03:52:50.414Z,99.90
2023-05-06T03:55:23.917Z,99.90
2023-05-06T03:57:52.046Z,99.90
2023-05-06T04:00:20.475Z,99.90
2023-05-06T04:02:48.966Z,99.90
2023-05-06T04:05:17.639Z,99.90
2023-05-06T04:07:46.050Z,99.90
2023-05-06T04:10:14.750Z,99.90
2023-05-06T04:12:44.516Z,99.90
2023-05-06T04:15:13.058Z,99.90
2023-05-06T04:17:41.733Z,99.90
2023-05-06T04:20:12.526Z,99.90
2023-05-06T04:22:41.332Z,99.90
2023-05-06T04:25:11.054Z,99.90
2023-05-06T04:27:41.759Z,99.90
2023-05-06T04:30:13.706Z,99.90
2023-05-06T04:32:41.981Z,99.90
2023-05-06T04:35:10.966Z,99.90
2023-05-06T04:37:41.394Z,99.90
2023-05-06T04:40:10.454Z,99.90
2023-05-06T04:42:39.837Z,99.90
2023-05-06T04:45:09.537Z,99.90
2023-05-06T04:47:39.252Z,99.90
2023-05-06T04:50:10.491Z,99.90
2023-05-06T04:52:39.839Z,99.90
2023-05-06T04:55:09.694Z,99.90
2023-05-06T04:57:38.161Z,99.90
2023-05-06T05:00:11.548Z,99.90
2023-05-06T05:02:43.637Z,99.90
2023-05-06T05:05:12.465Z,99.90
2023-05-06T05:07:40.692Z,99.90
2023-05-06T05:10:11.154Z,99.90
2023-05-06T05:12:39.268Z,99.90
2023-05-06T05:15:08.414Z,99.90
2023-05-06T05:17:36.683Z,99.90
2023-05-06T05:20:07.648Z,99.90
2023-05-06T05:22:36.741Z,99.90
2023-05-06T05:25:07.458Z,99.90
2023-05-06T05:27:36.707Z,99.90
2023-05-06T05:30:05.553Z,99.90
2023-05-06T05:32:34.885Z,99.90
2023-05-06T05:35:02.991Z,99.90
2023-05-06T05:37:32.929Z,99.90
2023-05-06T05:40:01.282Z,99.90
2023-05-06T05:42:31.144Z,99.90
2023-05-06T05:45:00.668Z,99.90
2023-05-06T05:47:29.080Z,99.90
2023-05-06T05:49:57.453Z,99.90
2023-05-06T05:52:25.929Z,99.90
2023-05-06T05:54:55.613Z,99.90
2023-05-06T05:57:25.173Z,99.90
2023-05-06T05:59:53.802Z,99.90
2023-05-06T06:02:23.402Z,99.90
2023-05-06T06:04:51.951Z,99.90
2023-05-06T06:07:20.666Z,99.90
2023-05-06T06:09:50.957Z,99.90
2023-05-06T06:12:20.448Z,99.90
2023-05-06T06:14:52.215Z,99.90
2023-05-06T06:17:22.801Z,99.90
2023-05-06T06:19:57.213Z,99.90
2023-05-06T06:22:26.562Z,99.90
2023-05-06T06:24:55.221Z,99.90
2023-05-06T06:27:27.814Z,99.90
2023-05-06T06:29:55.978Z,99.90
2023-05-06T06:32:24.546Z,99.90
2023-05-06T06:34:54.020Z,99.90
2023-05-06T06:37:21.892Z,99.90
2023-05-06T06:39:49.892Z,99.90
2023-05-06T06:42:18.171Z,99.90
2023-05-06T06:44:50.619Z,99.90
2023-05-06T06:47:18.628Z,99.90
2023-05-06T06:49:46.769Z,99.90
2023-05-06T06:52:14.712Z,99.90
2023-05-06T06:54:42.794Z,99.90
2023-05-06T06:57:10.775Z,99.90
2023-05-06T06:59:39.205Z,99.90
2023-05-06T07:02:08.755Z,99.90
2023-05-06T07:04:37.265Z,99.90
2023-05-06T07:07:05.252Z,99.90
2023-05-06T07:09:35.038Z,99.90
2023-05-06T07:12:03.862Z,99.90
2023-05-06T07:14:32.095Z,99.90
2023-05-06T07:17:00.917Z,99.90
2023-05-06T07:19:31.485Z,99.90
2023-05-06T07:21:59.777Z,99.90
2023-05-06T07:24:27.804Z,99.90
2023-05-06T07:26:56.163Z,99.90
2023-05-06T07:29:25.013Z,99.90
2023-05-06T07:31:53.331Z,99.90
2023-05-06T07:34:21.431Z,99.90
2023-05-06T07:36:57.672Z,99.90
2023-05-06T07:39:27.977Z,99.90
2023-05-06T07:41:56.236Z,99.90
2023-05-06T07:44:24.429Z,99.90
2023-05-06T07:46:52.539Z,99.90
2023-05-06T07:49:21.324Z,99.90
2023-05-06T07:51:51.191Z,99.90
2023-05-06T07:54:20.055Z,99.90
2023-05-06T07:56:48.626Z,99.90
2023-05-06T07:59:16.814Z,99.90
2023-05-06T08:01:44.944Z,99.90
2023-05-06T08:04:13.086Z,99.90
2023-05-06T08:06:41.154Z,99.90
2023-05-06T08:09:14.749Z,99.90
2023-05-06T08:11:47.928Z,99.90
2023-05-06T08:14:15.892Z,99.90
2023-05-06T08:16:44.002Z,99.90
2023-05-06T08:19:12.095Z,99.90
2023-05-06T08:21:40.088Z,99.90
2023-05-06T08:24:13.549Z,99.90
2023-05-06T08:26:41.889Z,99.90
2023-05-06T08:29:11.385Z,99.90
2023-05-06T08:31:39.771Z,99.90
2023-05-06T08:34:07.827Z,99.90
2023-05-06T08:36:35.813Z,99.90
2023-05-06T08:39:03.830Z,99.90
2023-05-06T08:41:35.753Z,99.90
2023-05-06T08:44:06.596Z,99.90
2023-05-06T08:46:39.568Z,99.90
2023-05-06T08:49:08.015Z,99.90
2023-05-06T08:51:38.873Z,99.90
2023-05-06T08:54:08.383Z,99.90
2023-05-06T08:56:39.914Z,99.90
2023-05-06T08:59:10.340Z,99.90
2023-05-06T09:01:39.499Z,99.90
2023-05-06T09:04:08.738Z,99.90
2023-05-06T09:06:36.665Z,99.90
2023-05-06T09:09:05.940Z,99.90
2023-05-06T09:11:34.151Z,99.90
2023-05-06T09:14:14.711Z,99.90
2023-05-06T09:16:44.603Z,99.90
2023-05-06T09:19:13.877Z,99.90
2023-05-06T09:21:43.948Z,99.90
2023-05-06T09:24:13.998Z,99.90
2023-05-06T09:26:43.066Z,99.90
2023-05-06T09:29:12.517Z,99.90
2023-05-06T09:31:45.857Z,1.00
2023-05-06T09:34:15.620Z,1.00
2023-05-06T09:36:43.772Z,1.00
2023-05-06T09:39:11.665Z,1.00
2023-05-06T09:41:39.776Z,1.00
2023-05-06T09:44:08.298Z,28.30
2023-05-06T09:46:38.655Z,25.40
2023-05-06T09:49:07.727Z,28.90
2023-05-06T09:51:36.259Z,56.20
2023-05-06T09:54:05.451Z,1.00
2023-05-06T09:56:35.653Z,86.90
2023-05-06T09:59:05.650Z,99.90
2023-05-06T10:01:37.557Z,99.90
2023-05-06T10:04:13.232Z,99.90
2023-05-06T10:06:41.902Z,99.90
2023-05-06T10:09:10.303Z,99.90
2023-05-06T10:11:38.341Z,99.90
2023-05-06T10:14:07.706Z,99.90
2023-05-06T10:16:36.572Z,99.90
2023-05-06T10:19:09.465Z,99.90
2023-05-06T10:21:37.468Z,99.90
2023-05-06T10:24:09.319Z,99.90
2023-05-06T10:26:38.835Z,99.90
2023-05-06T10:29:10.729Z,99.90
2023-05-06T10:31:41.671Z,99.90
2023-05-06T10:34:11.650Z,99.90
2023-05-06T10:36:41.721Z,99.90
2023-05-06T10:39:13.553Z,99.90
2023-05-06T10:41:41.929Z,99.90
2023-05-06T10:44:10.257Z,99.90
2023-05-06T10:47:00.645Z,99.90
2023-05-06T10:49:32.182Z,99.90
2023-05-06T10:52:14.755Z,99.90
2023-05-06T10:54:50.446Z,99.90
2023-05-06T10:57:20.721Z,99.90
2023-05-06T10:59:50.100Z,99.90
2023-05-06T11:02:20.952Z,99.90
2023-05-06T11:05:01.982Z,99.90
2023-05-06T11:07:30.322Z,99.90
2023-05-06T11:09:59.862Z,99.90
2023-05-06T11:12:49.119Z,99.90
2023-05-06T11:15:28.324Z,99.90
2023-05-06T11:17:58.055Z,99.90
2023-05-06T11:20:27.802Z,99.90
2023-05-06T11:22:56.465Z,99.90
2023-05-06T11:25:47.130Z,99.90
2023-05-06T11:28:17.361Z,99.90
2023-05-06T11:30:54.652Z,99.90
2023-05-06T11:33:26.122Z,99.90
2023-05-06T11:35:58.068Z,99.90
2023-05-06T11:38:26.458Z,99.90
2023-05-06T11:40:58.408Z,99.90
2023-05-06T11:43:27.174Z,99.60
2023-05-06T11:45:55.480Z,55.40
2023-05-06T11:48:23.774Z,99.90
2023-05-06T11:50:52.239Z,94.30
2023-05-06T11:53:25.312Z,47.40
2023-05-06T11:55:54.885Z,5.60
2023-05-06T11:58:27.148Z,8.80
2023-05-06T12:00:58.902Z,20.50
2023-05-06T12:03:28.810Z,7.00
2023-05-06T12:05:59.530Z,4.70
2023-05-06T12:08:33.001Z,6.50
2023-05-06T12:11:04.399Z,12.00
2023-05-06T12:13:34.951Z,7.80
2023-05-06T12:16:03.915Z,6.90
2023-05-06T12:18:35.391Z,25.20
2023-05-06T12:21:04.006Z,11.30
2023-05-06T12:23:34.613Z,5.20
2023-05-06T12:26:04.049Z,2.50
2023-05-06T12:28:35.696Z,1.00
2023-05-06T12:31:19.137Z,27.70
2023-05-06T12:33:51.606Z,1.00
2023-05-06T12:36:20.621Z,1.00
2023-05-06T12:38:54.610Z,1.00
2023-05-06T12:41:23.483Z,1.00
2023-05-06T12:43:52.836Z,1.00
2023-05-06T12:46:21.337Z,1.00
2023-05-06T12:49:02.563Z,1.00
2023-05-06T12:51:32.386Z,1.00
2023-05-06T12:54:01.951Z,1.00
2023-05-06T12:56:29.965Z,1.00
2023-05-06T12:58:59.792Z,1.00
2023-05-06T13:01:29.131Z,46.70
2023-05-06T13:03:58.429Z,29.60
2023-05-06T13:06:26.491Z,57.40
2023-05-06T13:08:54.671Z,1.00
2023-05-06T13:11:24.457Z,1.00
2023-05-06T13:13:52.619Z,1.00
2023-05-06T13:16:22.241Z,1.00
2023-05-06T13:18:51.139Z,99.90
2023-05-06T13:21:19.090Z,1.00
2023-05-06T13:23:48.486Z,1.00
2023-05-06T13:26:17.972Z,99.90
2023-05-06T13:28:47.747Z,99.90
2023-05-06T13:31:16.200Z,99.90
2023-05-06T13:33:44.710Z,99.90
2023-05-06T13:36:12.699Z,99.90
2023-05-06T13:38:41.046Z,99.90
2023-05-06T13:41:09.402Z,99.90
2023-05-06T13:43:37.779Z,99.90
2023-05-06T13:46:09.446Z,99.90
2023-05-06T13:48:37.532Z,99.90
2023-05-06T13:51:06.317Z,99.90
2023-05-06T13:53:35.897Z,99.90
2023-05-06T13:56:04.383Z,99.90
2023-05-06T13:58:32.503Z,99.90
2023-05-06T14:01:00.725Z,99.90
2023-05-06T14:03:30.317Z,99.90
2023-05-06T14:05:58.825Z,11.70
2023-05-06T14:08:26.976Z,1.00
2023-05-06T14:10:54.962Z,1.00
2023-05-06T14:13:23.097Z,1.00
2023-05-06T14:15:51.339Z,1.00
2023-05-06T14:18:19.393Z,1.00
2023-05-06T14:20:49.449Z,1.00
2023-05-06T14:23:17.766Z,1.00
2023-05-06T14:25:45.980Z,1.00
2023-05-06T14:28:15.551Z,1.00
2023-05-06T14:30:44.161Z,99.90
2023-05-06T14:33:13.068Z,99.90
2023-05-06T14:35:42.319Z,99.90
2023-05-06T14:38:13.259Z,99.90
2023-05-06T14:40:41.395Z,99.90
2023-05-06T14:43:11.673Z,1.00
2023-05-06T14:45:39.723Z,99.90
2023-05-06T14:48:07.794Z,99.90
2023-05-06T14:50:35.835Z,99.90
2023-05-06T14:53:04.182Z,99.90
2023-05-06T14:55:33.830Z,99.90
2023-05-06T14:58:01.955Z,99.90
2023-05-06T15:00:29.960Z,99.90
2023-05-06T15:02:58.459Z,99.90
2023-05-06T15:05:26.560Z,99.90
2023-05-06T15:07:54.616Z,99.90
2023-05-06T15:10:23.142Z,99.90
2023-05-06T15:12:52.505Z,99.90
2023-05-06T15:15:21.452Z,99.90
2023-05-06T15:17:52.353Z,99.90
2023-05-06T15:20:20.419Z,99.90
2023-05-06T15:22:48.387Z,99.90
2023-05-06T15:25:30.285Z,99.90
2023-05-06T15:28:04.133Z,99.90
2023-05-06T15:30:35.052Z,99.90
2023-05-06T15:33:03.394Z,99.90
2023-05-06T15:35:32.564Z,99.90
2023-05-06T15:38:00.555Z,99.90
2023-05-06T15:40:28.643Z,99.40
2023-05-06T15:42:56.790Z,99.90
2023-05-06T15:45:26.071Z,44.70
2023-05-06T15:47:54.583Z,60.40
2023-05-06T15:50:32.711Z,1.00
2023-05-06T15:53:02.784Z,28.30
2023-05-06T15:55:35.326Z,99.90
2023-05-06T15:58:12.204Z,35.00
2023-05-06T16:00:41.712Z,99.90
2023-05-06T16:03:12.259Z,74.80
2023-05-06T16:05:41.099Z,1.20
2023-05-06T16:08:09.364Z,13.90
2023-05-06T16:10:37.337Z,22.50
2023-05-06T16:13:05.599Z,1.00
2023-05-06T16:15:35.382Z,19.30
2023-05-06T16:18:05.339Z,1.00
2023-05-06T16:20:34.552Z,3.90
2023-05-06T16:23:02.990Z,50.80
2023-05-06T16:25:31.323Z,46.40
2023-05-06T16:27:59.395Z,53.70
2023-05-06T16:30:27.584Z,21.00
2023-05-06T16:32:56.016Z,43.30
2023-05-06T16:35:25.731Z,99.90
2023-05-06T16:37:54.036Z,99.90
2023-05-06T16:40:22.474Z,99.90
2023-05-06T16:42:51.072Z,99.90
2023-05-06T16:45:19.271Z,99.90
2023-05-06T16:47:48.349Z,99.90
2023-05-06T16:50:16.863Z,99.90
2023-05-06T16:52:46.456Z,99.90
2023-05-06T16:55:14.562Z,99.90
2023-05-06T16:57:44.287Z,1.00
2023-05-06T17:00:13.908Z,1.00
2023-05-06T17:02:42.184Z,1.00
2023-05-06T17:05:11.062Z,1.00
2023-05-06T17:07:39.390Z,1.00
2023-05-06T17:10:10.234Z,1.00
2023-05-06T17:12:38.428Z,1.00
2023-05-06T17:15:07.469Z,1.00
2023-05-06T17:17:35.698Z,1.00
2023-05-06T17:20:05.351Z,1.00
2023-05-06T17:22:34.954Z,1.00
2023-05-06T17:25:03.514Z,1.00
2023-05-06T17:27:33.136Z,1.00
2023-05-06T17:30:01.757Z,1.00
2023-05-06T17:32:29.970Z,1.00
2023-05-06T17:34:58.097Z,1.00
2023-05-06T17:37:26.428Z,1.00
2023-05-06T17:39:54.709Z,18.00
2023-05-06T17:42:23.184Z,21.70
2023-05-06T17:44:54.333Z,60.10
2023-05-06T17:47:22.863Z,55.90
2023-05-06T17:49:53.898Z,99.90
2023-05-06T17:52:22.060Z,99.90
2023-05-06T17:55:05.851Z,99.90
2023-05-06T17:57:39.001Z,99.90
2023-05-06T18:00:11.387Z,99.90
2023-05-06T18:02:39.728Z,99.90
2023-05-06T18:05:08.560Z,99.90
2023-05-06T18:07:37.022Z,99.90
2023-05-06T18:10:05.613Z,99.90
2023-05-06T18:12:33.844Z,99.90
2023-05-06T18:15:02.297Z,99.90
2023-05-06T18:17:31.765Z,99.90
2023-05-06T18:19:59.980Z,99.90
2023-05-06T18:22:28.068Z,1.00
2023-05-06T18:24:56.274Z,1.00
2023-05-06T18:27:25.125Z,1.00
2023-05-06T18:29:53.369Z,1.00
2023-05-06T18:32:22.548Z,1.00
2023-05-06T18:34:52.121Z,1.00
2023-05-06T18:37:20.227Z,99.90
2023-05-06T18:39:48.688Z,99.90
2023-05-06T18:42:17.171Z,99.90
2023-05-06T18:44:45.670Z,99.90
2023-05-06T18:47:14.089Z,99.90
2023-05-06T18:49:42.036Z,99.90
2023-05-06T18:52:14.469Z,1.00
2023-05-06T18:54:42.577Z,1.00
2023-05-06T18:57:10.849Z,1.00
2023-05-06T18:59:38.970Z,1.00
2023-05-06T19:02:09.136Z,1.00
2023-05-06T19:04:38.251Z,1.00
2023-05-06T19:07:08.346Z,95.30
2023-05-06T19:09:37.826Z,1.00
2023-05-06T19:12:05.861Z,99.90
2023-05-06T19:14:38.151Z,99.90
2023-05-06T19:17:06.442Z,99.90
2023-05-06T19:19:34.969Z,1.00
2023-05-06T19:22:03.030Z,1.00
2023-05-06T19:24:32.835Z,99.90
2023-05-06T19:27:03.278Z,99.90
2023-05-06T19:29:31.584Z,27.70
2023-05-06T19:32:00.475Z,1.00
2023-05-06T19:34:28.793Z,99.90
2023-05-06T19:36:57.356Z,1.00
2023-05-06T19:39:26.247Z,1.00
2023-05-06T19:41:55.750Z,99.90
2023-05-06T19:44:25.204Z,67.40
2023-05-06T19:46:55.548Z,1.00
2023-05-06T19:49:23.626Z,99.90
2023-05-06T19:51:52.013Z,99.90
2023-05-06T19:54:20.226Z,99.90
2023-05-06T19:56:48.282Z,99.90
2023-05-06T19:59:17.557Z,1.00
2023-05-06T20:01:47.129Z,1.00
2023-05-06T20:04:15.269Z,58.10
2023-05-06T20:06:43.642Z,1.80
2023-05-06T20:09:11.686Z,99.90
2023-05-06T20:11:40.078Z,1.00
2023-05-06T20:14:08.224Z,1.00
2023-05-06T20:16:36.220Z,99.90
2023-05-06T20:19:05.571Z,99.90
2023-05-06T20:21:33.917Z,1.00
2023-05-06T20:24:01.913Z,99.90
2023-05-06T20:26:31.045Z,99.90
2023-05-06T20:28:59.380Z,99.90
2023-05-06T20:31:27.816Z,99.90
2023-05-06T20:33:56.176Z,16.60
2023-05-06T20:36:27.014Z,99.90
2023-05-06T20:38:55.327Z,99.90
2023-05-06T20:41:23.328Z,1.00
2023-05-06T20:43:54.424Z,1.00
2023-05-06T20:46:22.784Z,1.00
2023-05-06T20:48:51.913Z,1.00
2023-05-06T20:51:20.282Z,1.00
2023-05-06T20:53:49.867Z,31.30
2023-05-06T20:56:19.166Z,95.90
2023-05-06T20:58:47.267Z,68.90
2023-05-06T21:01:18.991Z,99.90
2023-05-06T21:03:48.124Z,99.90
2023-05-06T21:06:17.234Z,99.90
2023-05-06T21:08:46.464Z,99.90
2023-05-06T21:11:15.979Z,99.90
2023-05-06T21:13:43.950Z,99.90
2023-05-06T21:16:11.968Z,99.90
2023-05-06T21:18:40.477Z,99.90
2023-05-06T21:21:10.173Z,99.90
2023-05-06T21:23:38.900Z,99.90
2023-05-06T21:26:06.989Z,99.90
2023-05-06T21:28:36.248Z,99.90
2023-05-06T21:31:05.066Z,99.90
2023-05-06T21:33:33.513Z,99.90
2023-05-06T21:36:04.069Z,99.90
2023-05-06T21:38:32.727Z,99.90
2023-05-06T21:41:00.730Z,99.90
2023-05-06T21:43:29.833Z,99.90
2023-05-06T21:46:00.237Z,99.90
2023-05-06T21:48:28.394Z,99.90
2023-05-06T21:50:58.474Z,99.90
2023-05-06T21:53:26.672Z,99.90
2023-05-06T21:55:55.142Z,99.90
2023-05-06T21:58:24.007Z,99.90
2023-05-06T22:00:52.431Z,99.90
2023-05-06T22:03:21.888Z,99.90
2023-05-06T22:05:50.321Z,99.90
2023-05-06T22:08:18.318Z,99.90
2023-05-06T22:10:46.312Z,99.90
2023-05-06T22:13:14.489Z,99.90
2023-05-06T22:15:43.326Z,99.90
2023-05-06T22:18:11.305Z,99.90
2023-05-06T22:20:41.665Z,99.90
2023-05-06T22:23:10.474Z,99.90
2023-05-06T22:25:38.728Z,99.90
2023-05-06T22:28:07.177Z,99.90
2023-05-06T22:30:35.183Z,99.90
2023-05-06T22:33:03.405Z,99.90
2023-05-06T22:35:31.419Z,99.90
2023-05-06T22:38:00.925Z,99.90
2023-05-06T22:40:29.253Z,99.90
2023-05-06T22:42:57.644Z,99.90
2023-05-06T22:45:25.743Z,99.90
2023-05-06T22:47:53.988Z,99.90
2023-05-06T22:50:22.110Z,99.90
2023-05-06T22:52:50.355Z,99.90
2023-05-06T22:55:20.164Z,99.90
2023-05-06T22:57:50.120Z,99.90
2023-05-06T23:00:19.530Z,99.90
2023-05-06T23:02:48.011Z,99.90
2023-05-06T23:05:16.790Z,99.90
2023-05-06T23:07:45.773Z,99.90
2023-05-06T23:10:13.742Z,99.90
2023-05-06T23:12:43.132Z,99.90
2023-05-06T23:15:11.925Z,99.90
2023-05-06T23:17:40.358Z,99.90
2023-05-06T23:20:09.549Z,99.90
2023-05-06T23:22:37.582Z,99.90
2023-05-06T23:25:09.138Z,99.90
2023-05-06T23:27:39.428Z,99.90
2023-05-06T23:30:10.276Z,99.90
2023-05-06T23:32:38.907Z,99.90
2023-05-06T23:35:07.707Z,99.90
2023-05-06T23:37:36.052Z,99.90
2023-05-06T23:40:04.900Z,99.90
2023-05-06T23:42:33.005Z,99.90
2023-05-06T23:45:01.068Z,99.90
2023-05-06T23:47:30.639Z,99.90
2023-05-06T23:49:58.847Z,99.90
2023-05-06T23:52:27.337Z,99.90
2023-05-06T23:54:55.403Z,99.90
2023-05-06T23:57:23.281Z,99.90
2023-05-06T23:59:51.416Z,99.90
